sensor_id;sensor_type;location;lat;lon;timestamp;P1;durP1;ratioP1;P2;durP2;ratioP2
419;SDS011;42600;54.408;13.016;2022-08-25T00:00:32;5.57;;;3.37;;
419;SDS011;42600;54.408;13.016;2022-08-25T00:02:59;18.10;;;4.40;;
419;SDS011;42600;54.408;13.016;2022-08-25T00:05:28;9.83;;;3.87;;
419;SDS011;42600;54.408;13.016;2022-08-25T00:07:55;13.00;;;5.00;;
419;SDS011;42600;54.408;13.016;2022-08-25T00:10:22;22.23;;;4.37;;
419;SDS011;42600;54.408;13.016;2022-08-25T00:12:48;7.53;;;3.60;;
419;SDS011;42600;54.408;13.016;2022-08-25T00:15:15;11.20;;;4.57;;
419;SDS011;42600;54.408;13.016;2022-08-25T00:17:42;11.00;;;4.97;;
419;SDS011;42600;54.408;13.016;2022-08-25T00:20:09;10.57;;;5.73;;
419;SDS011;42600;54.408;13.016;2022-08-25T00:22:38;5.90;;;3.97;;
419;SDS011;42600;54.408;13.016;2022-08-25T00:25:05;8.87;;;4.60;;
419;SDS011;42600;54.408;13.016;2022-08-25T00:27:33;8.10;;;4.10;;
419;SDS011;42600;54.408;13.016;2022-08-25T00:30:00;12.23;;;4.63;;
419;SDS011;42600;54.408;13.016;2022-08-25T00:32:26;13.80;;;4.30;;
419;SDS011;42600;54.408;13.016;2022-08-25T00:34:53;18.00;;;4.77;;
419;SDS011;42600;54.408;13.016;2022-08-25T00:37:19;18.47;;;4.73;;
419;SDS011;42600;54.408;13.016;2022-08-25T00:39:47;22.83;;;5.73;;
419;SDS011;42600;54.408;13.016;2022-08-25T00:42:14;12.40;;;4.27;;
419;SDS011;42600;54.408;13.016;2022-08-25T00:44:44;14.33;;;4.60;;
419;SDS011;42600;54.408;13.016;2022-08-25T00:47:11;9.50;;;3.77;;
419;SDS011;42600;54.408;13.016;2022-08-25T00:49:39;9.37;;;4.50;;
419;SDS011;42600;54.408;13.016;2022-08-25T00:52:10;10.53;;;4.30;;
419;SDS011;42600;54.408;13.016;2022-08-25T00:54:40;13.50;;;4.60;;
419;SDS011;42600;54.408;13.016;2022-08-25T00:57:12;9.40;;;4.23;;
419;SDS011;42600;54.408;13.016;2022-08-25T00:59:41;9.83;;;4.20;;
419;SDS011;42600;54.408;13.016;2022-08-25T01:02:08;9.80;;;4.40;;
419;SDS011;42600;54.408;13.016;2022-08-25T01:04:36;7.40;;;4.63;;
419;SDS011;42600;54.408;13.016;2022-08-25T01:07:03;6.83;;;4.27;;
419;SDS011;42600;54.408;13.016;2022-08-25T01:09:31;6.77;;;3.83;;
419;SDS011;42600;54.408;13.016;2022-08-25T01:11:58;13.03;;;5.50;;
419;SDS011;42600;54.408;13.016;2022-08-25T01:14:27;19.60;;;4.80;;
419;SDS011;42600;54.408;13.016;2022-08-25T01:16:55;14.43;;;5.60;;
419;SDS011;42600;54.408;13.016;2022-08-25T01:19:23;12.83;;;4.43;;
419;SDS011;42600;54.408;13.016;2022-08-25T01:21:53;28.57;;;5.50;;
419;SDS011;42600;54.408;13.016;2022-08-25T01:24:22;8.60;;;3.97;;
419;SDS011;42600;54.408;13.016;2022-08-25T01:26:53;8.23;;;4.80;;
419;SDS011;42600;54.408;13.016;2022-08-25T01:29:20;8.10;;;4.33;;
419;SDS011;42600;54.408;13.016;2022-08-25T01:31:50;13.30;;;5.73;;
419;SDS011;42600;54.408;13.016;2022-08-25T01:34:20;15.97;;;5.20;;
419;SDS011;42600;54.408;13.016;2022-08-25T01:36:47;12.63;;;5.20;;
419;SDS011;42600;54.408;13.016;2022-08-25T01:39:15;5.67;;;3.93;;
419;SDS011;42600;54.408;13.016;2022-08-25T01:41:44;11.10;;;4.43;;
419;SDS011;42600;54.408;13.016;2022-08-25T01:44:19;18.77;;;5.13;;
419;SDS011;42600;54.408;13.016;2022-08-25T01:46:46;13.63;;;4.23;;
419;SDS011;42600;54.408;13.016;2022-08-25T01:49:13;8.17;;;4.57;;
419;SDS011;42600;54.408;13.016;2022-08-25T01:51:41;18.80;;;5.27;;
419;SDS011;42600;54.408;13.016;2022-08-25T01:54:09;9.67;;;4.53;;
419;SDS011;42600;54.408;13.016;2022-08-25T01:56:37;12.43;;;4.23;;
419;SDS011;42600;54.408;13.016;2022-08-25T01:59:04;13.37;;;4.50;;
419;SDS011;42600;54.408;13.016;2022-08-25T02:01:30;8.13;;;4.47;;
419;SDS011;42600;54.408;13.016;2022-08-25T02:03:57;14.40;;;4.03;;
419;SDS011;42600;54.408;13.016;2022-08-25T02:06:25;11.30;;;4.77;;
419;SDS011;42600;54.408;13.016;2022-08-25T02:08:54;9.20;;;4.13;;
419;SDS011;42600;54.408;13.016;2022-08-25T02:11:22;13.00;;;5.53;;
419;SDS011;42600;54.408;13.016;2022-08-25T02:13:51;8.60;;;4.23;;
419;SDS011;42600;54.408;13.016;2022-08-25T02:16:20;12.63;;;4.10;;
419;SDS011;42600;54.408;13.016;2022-08-25T02:18:54;13.10;;;4.63;;
419;SDS011;42600;54.408;13.016;2022-08-25T02:21:23;9.80;;;4.50;;
419;SDS011;42600;54.408;13.016;2022-08-25T02:23:49;9.43;;;4.87;;
419;SDS011;42600;54.408;13.016;2022-08-25T02:26:17;13.77;;;5.53;;
419;SDS011;42600;54.408;13.016;2022-08-25T02:28:44;14.37;;;4.33;;
419;SDS011;42600;54.408;13.016;2022-08-25T02:31:12;15.20;;;4.37;;
419;SDS011;42600;54.408;13.016;2022-08-25T02:33:39;13.10;;;5.17;;
419;SDS011;42600;54.408;13.016;2022-08-25T02:36:06;9.10;;;4.77;;
419;SDS011;42600;54.408;13.016;2022-08-25T02:38:33;9.37;;;5.10;;
419;SDS011;42600;54.408;13.016;2022-08-25T02:41:00;17.20;;;5.50;;
419;SDS011;42600;54.408;13.016;2022-08-25T02:43:33;13.87;;;5.10;;
419;SDS011;42600;54.408;13.016;2022-08-25T02:45:59;6.50;;;3.60;;
419;SDS011;42600;54.408;13.016;2022-08-25T02:48:27;12.53;;;6.10;;
419;SDS011;42600;54.408;13.016;2022-08-25T02:50:54;6.60;;;4.20;;
419;SDS011;42600;54.408;13.016;2022-08-25T02:53:25;9.03;;;3.87;;
419;SDS011;42600;54.408;13.016;2022-08-25T02:55:52;7.00;;;3.97;;
419;SDS011;42600;54.408;13.016;2022-08-25T02:58:20;16.30;;;5.27;;
419;SDS011;42600;54.408;13.016;2022-08-25T03:00:47;26.97;;;6.20;;
419;SDS011;42600;54.408;13.016;2022-08-25T03:03:14;9.27;;;4.23;;
419;SDS011;42600;54.408;13.016;2022-08-25T03:05:42;20.10;;;4.80;;
419;SDS011;42600;54.408;13.016;2022-08-25T03:08:09;9.03;;;5.17;;
419;SDS011;42600;54.408;13.016;2022-08-25T03:10:36;16.33;;;5.57;;
419;SDS011;42600;54.408;13.016;2022-08-25T03:13:03;11.40;;;4.30;;
419;SDS011;42600;54.408;13.016;2022-08-25T03:15:30;22.93;;;4.70;;
419;SDS011;42600;54.408;13.016;2022-08-25T03:17:57;11.33;;;4.87;;
419;SDS011;42600;54.408;13.016;2022-08-25T03:20:25;20.00;;;5.77;;
419;SDS011;42600;54.408;13.016;2022-08-25T03:22:53;19.57;;;5.23;;
419;SDS011;42600;54.408;13.016;2022-08-25T03:25:19;18.83;;;5.27;;
419;SDS011;42600;54.408;13.016;2022-08-25T03:28:05;16.90;;;4.67;;
419;SDS011;42600;54.408;13.016;2022-08-25T03:30:32;16.17;;;4.70;;
419;SDS011;42600;54.408;13.016;2022-08-25T03:32:58;15.63;;;3.93;;
419;SDS011;42600;54.408;13.016;2022-08-25T03:35:25;13.53;;;4.03;;
419;SDS011;42600;54.408;13.016;2022-08-25T03:37:55;10.23;;;4.10;;
419;SDS011;42600;54.408;13.016;2022-08-25T03:40:22;11.33;;;3.97;;
419;SDS011;42600;54.408;13.016;2022-08-25T03:42:49;10.63;;;4.60;;
419;SDS011;42600;54.408;13.016;2022-08-25T03:45:16;7.20;;;4.77;;
419;SDS011;42600;54.408;13.016;2022-08-25T03:47:44;8.33;;;4.43;;
419;SDS011;42600;54.408;13.016;2022-08-25T03:50:13;9.80;;;5.43;;
419;SDS011;42600;54.408;13.016;2022-08-25T03:52:40;7.60;;;4.50;;
419;SDS011;42600;54.408;13.016;2022-08-25T03:55:10;14.47;;;4.87;;
419;SDS011;42600;54.408;13.016;2022-08-25T03:57:38;9.57;;;4.70;;
419;SDS011;42600;54.408;13.016;2022-08-25T04:00:05;11.17;;;5.70;;
419;SDS011;42600;54.408;13.016;2022-08-25T04:02:33;11.37;;;5.87;;
419;SDS011;42600;54.408;13.016;2022-08-25T04:05:00;14.27;;;4.93;;
419;SDS011;42600;54.408;13.016;2022-08-25T04:07:27;8.73;;;3.70;;
419;SDS011;42600;54.408;13.016;2022-08-25T04:09:53;13.60;;;4.77;;
419;SDS011;42600;54.408;13.016;2022-08-25T04:12:21;14.30;;;5.20;;
419;SDS011;42600;54.408;13.016;2022-08-25T04:14:48;9.90;;;5.23;;
419;SDS011;42600;54.408;13.016;2022-08-25T04:17:16;11.57;;;5.50;;
419;SDS011;42600;54.408;13.016;2022-08-25T04:19:43;9.63;;;5.27;;
419;SDS011;42600;54.408;13.016;2022-08-25T04:22:09;11.60;;;4.90;;
419;SDS011;42600;54.408;13.016;2022-08-25T04:24:36;8.63;;;4.53;;
419;SDS011;42600;54.408;13.016;2022-08-25T04:27:03;9.47;;;4.93;;
419;SDS011;42600;54.408;13.016;2022-08-25T04:29:31;14.50;;;5.17;;
419;SDS011;42600;54.408;13.016;2022-08-25T04:31:57;10.00;;;5.30;;
419;SDS011;42600;54.408;13.016;2022-08-25T04:34:25;10.77;;;5.10;;
419;SDS011;42600;54.408;13.016;2022-08-25T04:36:52;11.67;;;4.80;;
419;SDS011;42600;54.408;13.016;2022-08-25T04:39:19;7.80;;;4.70;;
419;SDS011;42600;54.408;13.016;2022-08-25T04:41:46;12.90;;;4.30;;
419;SDS011;42600;54.408;13.016;2022-08-25T04:44:13;15.53;;;4.33;;
419;SDS011;42600;54.408;13.016;2022-08-25T04:46:41;7.23;;;4.00;;
419;SDS011;42600;54.408;13.016;2022-08-25T04:49:08;10.73;;;4.80;;
419;SDS011;42600;54.408;13.016;2022-08-25T04:51:35;18.67;;;5.47;;
419;SDS011;42600;54.408;13.016;2022-08-25T04:54:04;11.00;;;5.27;;
419;SDS011;42600;54.408;13.016;2022-08-25T04:56:33;8.40;;;4.40;;
419;SDS011;42600;54.408;13.016;2022-08-25T04:59:01;9.97;;;4.93;;
419;SDS011;42600;54.408;13.016;2022-08-25T05:01:29;9.60;;;5.60;;
419;SDS011;42600;54.408;13.016;2022-08-25T05:03:57;13.37;;;5.10;;
419;SDS011;42600;54.408;13.016;2022-08-25T05:06:26;12.77;;;5.90;;
419;SDS011;42600;54.408;13.016;2022-08-25T05:08:53;16.53;;;4.97;;
419;SDS011;42600;54.408;13.016;2022-08-25T05:11:21;11.50;;;5.20;;
419;SDS011;42600;54.408;13.016;2022-08-25T05:13:49;15.80;;;4.80;;
419;SDS011;42600;54.408;13.016;2022-08-25T05:16:18;6.40;;;3.90;;
419;SDS011;42600;54.408;13.016;2022-08-25T05:18:45;9.97;;;5.27;;
419;SDS011;42600;54.408;13.016;2022-08-25T05:21:15;15.60;;;3.70;;
419;SDS011;42600;54.408;13.016;2022-08-25T05:23:42;12.33;;;4.60;;
419;SDS011;42600;54.408;13.016;2022-08-25T05:26:11;7.27;;;4.97;;
419;SDS011;42600;54.408;13.016;2022-08-25T05:28:39;11.00;;;3.80;;
419;SDS011;42600;54.408;13.016;2022-08-25T05:31:07;8.23;;;3.97;;
419;SDS011;42600;54.408;13.016;2022-08-25T05:33:35;7.87;;;4.57;;
419;SDS011;42600;54.408;13.016;2022-08-25T05:36:03;8.00;;;4.00;;
419;SDS011;42600;54.408;13.016;2022-08-25T05:38:32;12.37;;;5.10;;
419;SDS011;42600;54.408;13.016;2022-08-25T05:41:00;10.80;;;4.70;;
419;SDS011;42600;54.408;13.016;2022-08-25T05:43:28;9.40;;;4.73;;
419;SDS011;42600;54.408;13.016;2022-08-25T05:45:56;8.07;;;3.70;;
419;SDS011;42600;54.408;13.016;2022-08-25T05:48:24;9.37;;;4.57;;
419;SDS011;42600;54.408;13.016;2022-08-25T05:50:51;16.80;;;5.53;;
419;SDS011;42600;54.408;13.016;2022-08-25T05:53:18;10.60;;;4.17;;
419;SDS011;42600;54.408;13.016;2022-08-25T05:55:48;6.67;;;3.90;;
419;SDS011;42600;54.408;13.016;2022-08-25T05:58:15;7.47;;;3.73;;
419;SDS011;42600;54.408;13.016;2022-08-25T06:00:42;13.83;;;4.10;;
419;SDS011;42600;54.408;13.016;2022-08-25T06:03:09;11.80;;;4.40;;
419;SDS011;42600;54.408;13.016;2022-08-25T06:05:35;12.63;;;4.43;;
419;SDS011;42600;54.408;13.016;2022-08-25T06:08:02;6.97;;;3.50;;
419;SDS011;42600;54.408;13.016;2022-08-25T06:10:28;11.80;;;4.40;;
419;SDS011;42600;54.408;13.016;2022-08-25T06:12:56;6.63;;;3.33;;
419;SDS011;42600;54.408;13.016;2022-08-25T06:15:23;6.90;;;3.30;;
419;SDS011;42600;54.408;13.016;2022-08-25T06:17:50;6.93;;;3.90;;
419;SDS011;42600;54.408;13.016;2022-08-25T06:20:18;7.67;;;3.73;;
419;SDS011;42600;54.408;13.016;2022-08-25T06:22:46;7.57;;;3.30;;
419;SDS011;42600;54.408;13.016;2022-08-25T06:25:14;9.63;;;3.40;;
419;SDS011;42600;54.408;13.016;2022-08-25T06:27:41;8.60;;;3.57;;
419;SDS011;42600;54.408;13.016;2022-08-25T06:30:12;4.57;;;3.30;;
419;SDS011;42600;54.408;13.016;2022-08-25T06:32:41;7.87;;;3.93;;
419;SDS011;42600;54.408;13.016;2022-08-25T06:35:10;8.47;;;4.13;;
419;SDS011;42600;54.408;13.016;2022-08-25T06:37:38;5.00;;;3.27;;
419;SDS011;42600;54.408;13.016;2022-08-25T06:40:08;14.63;;;4.63;;
419;SDS011;42600;54.408;13.016;2022-08-25T06:42:35;12.60;;;4.37;;
419;SDS011;42600;54.408;13.016;2022-08-25T06:45:03;11.00;;;3.80;;
419;SDS011;42600;54.408;13.016;2022-08-25T06:47:32;8.50;;;3.80;;
419;SDS011;42600;54.408;13.016;2022-08-25T06:49:58;6.80;;;3.50;;
419;SDS011;42600;54.408;13.016;2022-08-25T06:52:27;5.07;;;3.30;;
419;SDS011;42600;54.408;13.016;2022-08-25T06:54:54;9.60;;;4.03;;
419;SDS011;42600;54.408;13.016;2022-08-25T06:57:21;7.77;;;4.20;;
419;SDS011;42600;54.408;13.016;2022-08-25T06:59:47;10.63;;;3.80;;
419;SDS011;42600;54.408;13.016;2022-08-25T07:02:14;10.63;;;3.57;;
419;SDS011;42600;54.408;13.016;2022-08-25T07:04:42;11.80;;;3.67;;
419;SDS011;42600;54.408;13.016;2022-08-25T07:07:09;6.87;;;3.20;;
419;SDS011;42600;54.408;13.016;2022-08-25T07:09:35;4.60;;;2.30;;
419;SDS011;42600;54.408;13.016;2022-08-25T07:12:02;4.33;;;3.70;;
419;SDS011;42600;54.408;13.016;2022-08-25T07:14:29;5.30;;;3.30;;
419;SDS011;42600;54.408;13.016;2022-08-25T07:16:56;16.83;;;4.40;;
419;SDS011;42600;54.408;13.016;2022-08-25T07:19:22;12.47;;;3.50;;
419;SDS011;42600;54.408;13.016;2022-08-25T07:21:51;12.47;;;3.77;;
419;SDS011;42600;54.408;13.016;2022-08-25T07:24:18;9.27;;;2.67;;
419;SDS011;42600;54.408;13.016;2022-08-25T07:26:45;7.10;;;3.87;;
419;SDS011;42600;54.408;13.016;2022-08-25T07:29:13;6.73;;;3.90;;
419;SDS011;42600;54.408;13.016;2022-08-25T07:31:41;10.00;;;3.73;;
419;SDS011;42600;54.408;13.016;2022-08-25T07:34:08;7.20;;;3.33;;
419;SDS011;42600;54.408;13.016;2022-08-25T07:36:54;15.07;;;3.27;;
419;SDS011;42600;54.408;13.016;2022-08-25T07:39:21;10.47;;;4.30;;
419;SDS011;42600;54.408;13.016;2022-08-25T07:41:49;7.33;;;3.77;;
419;SDS011;42600;54.408;13.016;2022-08-25T07:44:16;6.10;;;3.20;;
419;SDS011;42600;54.408;13.016;2022-08-25T07:46:44;8.33;;;4.03;;
419;SDS011;42600;54.408;13.016;2022-08-25T07:49:10;7.53;;;2.73;;
419;SDS011;42600;54.408;13.016;2022-08-25T07:51:37;9.90;;;2.93;;
419;SDS011;42600;54.408;13.016;2022-08-25T07:54:05;9.10;;;3.33;;
419;SDS011;42600;54.408;13.016;2022-08-25T07:56:32;10.97;;;3.73;;
419;SDS011;42600;54.408;13.016;2022-08-25T07:58:59;11.23;;;3.80;;
419;SDS011;42600;54.408;13.016;2022-08-25T08:01:25;8.93;;;3.87;;
419;SDS011;42600;54.408;13.016;2022-08-25T08:03:52;6.60;;;3.37;;
419;SDS011;42600;54.408;13.016;2022-08-25T08:06:20;7.70;;;3.47;;
419;SDS011;42600;54.408;13.016;2022-08-25T08:08:49;8.07;;;3.30;;
419;SDS011;42600;54.408;13.016;2022-08-25T08:11:19;10.30;;;3.77;;
419;SDS011;42600;54.408;13.016;2022-08-25T08:13:48;4.57;;;3.17;;
419;SDS011;42600;54.408;13.016;2022-08-25T08:16:16;9.23;;;4.10;;
419;SDS011;42600;54.408;13.016;2022-08-25T08:18:44;8.90;;;3.37;;
419;SDS011;42600;54.408;13.016;2022-08-25T08:21:12;12.00;;;4.10;;
419;SDS011;42600;54.408;13.016;2022-08-25T08:23:39;4.70;;;3.60;;
419;SDS011;42600;54.408;13.016;2022-08-25T08:26:06;11.77;;;3.60;;
419;SDS011;42600;54.408;13.016;2022-08-25T08:28:34;6.47;;;2.87;;
419;SDS011;42600;54.408;13.016;2022-08-25T08:31:01;9.47;;;2.90;;
419;SDS011;42600;54.408;13.016;2022-08-25T08:33:28;7.97;;;3.07;;
419;SDS011;42600;54.408;13.016;2022-08-25T08:35:56;8.50;;;3.20;;
419;SDS011;42600;54.408;13.016;2022-08-25T08:38:25;8.10;;;3.90;;
419;SDS011;42600;54.408;13.016;2022-08-25T08:40:55;9.43;;;2.70;;
419;SDS011;42600;54.408;13.016;2022-08-25T08:43:46;7.50;;;3.30;;
419;SDS011;42600;54.408;13.016;2022-08-25T08:46:15;10.63;;;3.60;;
419;SDS011;42600;54.408;13.016;2022-08-25T08:48:45;25.97;;;3.80;;
419;SDS011;42600;54.408;13.016;2022-08-25T08:51:20;4.50;;;3.13;;
419;SDS011;42600;54.408;13.016;2022-08-25T08:53:51;6.50;;;2.80;;
419;SDS011;42600;54.408;13.016;2022-08-25T08:56:21;4.30;;;2.43;;
419;SDS011;42600;54.408;13.016;2022-08-25T08:58:54;4.00;;;2.63;;
419;SDS011;42600;54.408;13.016;2022-08-25T09:01:23;9.70;;;3.23;;
419;SDS011;42600;54.408;13.016;2022-08-25T09:03:59;10.57;;;2.83;;
419;SDS011;42600;54.408;13.016;2022-08-25T09:06:36;9.50;;;3.23;;
419;SDS011;42600;54.408;13.016;2022-08-25T09:09:06;5.20;;;2.83;;
419;SDS011;42600;54.408;13.016;2022-08-25T09:11:43;6.43;;;3.50;;
419;SDS011;42600;54.408;13.016;2022-08-25T09:14:23;8.97;;;2.87;;
419;SDS011;42600;54.408;13.016;2022-08-25T09:17:05;5.60;;;3.00;;
419;SDS011;42600;54.408;13.016;2022-08-25T09:19:41;12.87;;;4.27;;
419;SDS011;42600;54.408;13.016;2022-08-25T09:22:31;6.43;;;3.20;;
419;SDS011;42600;54.408;13.016;2022-08-25T09:25:10;9.67;;;3.47;;
419;SDS011;42600;54.408;13.016;2022-08-25T09:27:46;17.30;;;2.67;;
419;SDS011;42600;54.408;13.016;2022-08-25T09:30:22;7.53;;;2.93;;
419;SDS011;42600;54.408;13.016;2022-08-25T09:32:49;6.33;;;3.20;;
419;SDS011;42600;54.408;13.016;2022-08-25T09:35:19;6.47;;;3.00;;
419;SDS011;42600;54.408;13.016;2022-08-25T09:37:55;17.30;;;3.07;;
419;SDS011;42600;54.408;13.016;2022-08-25T09:40:22;8.40;;;2.70;;
419;SDS011;42600;54.408;13.016;2022-08-25T09:42:50;8.00;;;2.07;;
419;SDS011;42600;54.408;13.016;2022-08-25T09:45:31;8.40;;;3.30;;
419;SDS011;42600;54.408;13.016;2022-08-25T09:48:20;9.20;;;3.37;;
419;SDS011;42600;54.408;13.016;2022-08-25T09:50:48;5.57;;;2.30;;
419;SDS011;42600;54.408;13.016;2022-08-25T09:53:16;9.73;;;3.70;;
419;SDS011;42600;54.408;13.016;2022-08-25T09:55:44;6.77;;;2.57;;
419;SDS011;42600;54.408;13.016;2022-08-25T09:58:19;5.70;;;2.10;;
419;SDS011;42600;54.408;13.016;2022-08-25T10:01:00;5.47;;;2.13;;
419;SDS011;42600;54.408;13.016;2022-08-25T10:03:29;8.20;;;3.20;;
419;SDS011;42600;54.408;13.016;2022-08-25T10:06:02;7.00;;;3.17;;
419;SDS011;42600;54.408;13.016;2022-08-25T10:08:33;6.00;;;2.80;;
419;SDS011;42600;54.408;13.016;2022-08-25T10:11:03;5.80;;;2.90;;
419;SDS011;42600;54.408;13.016;2022-08-25T10:13:34;6.50;;;2.70;;
419;SDS011;42600;54.408;13.016;2022-08-25T10:16:08;6.70;;;3.17;;
419;SDS011;42600;54.408;13.016;2022-08-25T10:18:37;6.73;;;2.97;;
419;SDS011;42600;54.408;13.016;2022-08-25T10:21:06;8.93;;;3.03;;
419;SDS011;42600;54.408;13.016;2022-08-25T10:23:36;5.67;;;2.60;;
419;SDS011;42600;54.408;13.016;2022-08-25T10:26:08;5.50;;;3.10;;
419;SDS011;42600;54.408;13.016;2022-08-25T10:28:41;11.63;;;3.43;;
419;SDS011;42600;54.408;13.016;2022-08-25T10:31:20;8.60;;;3.27;;
419;SDS011;42600;54.408;13.016;2022-08-25T10:33:55;4.60;;;2.87;;
419;SDS011;42600;54.408;13.016;2022-08-25T10:36:32;14.77;;;2.87;;
419;SDS011;42600;54.408;13.016;2022-08-25T10:39:08;6.60;;;2.37;;
419;SDS011;42600;54.408;13.016;2022-08-25T10:41:45;5.27;;;2.23;;
419;SDS011;42600;54.408;13.016;2022-08-25T10:44:20;7.47;;;3.10;;
419;SDS011;42600;54.408;13.016;2022-08-25T10:47:29;4.07;;;2.13;;
419;SDS011;42600;54.408;13.016;2022-08-25T10:50:12;5.40;;;2.17;;
419;SDS011;42600;54.408;13.016;2022-08-25T10:52:55;10.03;;;3.07;;
419;SDS011;42600;54.408;13.016;2022-08-25T10:55:48;4.87;;;2.60;;
419;SDS011;42600;54.408;13.016;2022-08-25T10:58:27;4.73;;;2.50;;
419;SDS011;42600;54.408;13.016;2022-08-25T11:01:09;4.13;;;2.27;;
419;SDS011;42600;54.408;13.016;2022-08-25T11:03:44;5.30;;;2.30;;
419;SDS011;42600;54.408;13.016;2022-08-25T11:06:17;7.00;;;3.90;;
419;SDS011;42600;54.408;13.016;2022-08-25T11:08:49;7.30;;;2.20;;
419;SDS011;42600;54.408;13.016;2022-08-25T11:11:22;10.93;;;3.53;;
419;SDS011;42600;54.408;13.016;2022-08-25T11:13:52;3.97;;;1.83;;
419;SDS011;42600;54.408;13.016;2022-08-25T11:16:26;6.80;;;3.30;;
419;SDS011;42600;54.408;13.016;2022-08-25T11:19:04;4.10;;;2.40;;
419;SDS011;42600;54.408;13.016;2022-08-25T11:21:39;6.03;;;4.17;;
419;SDS011;42600;54.408;13.016;2022-08-25T11:24:15;6.83;;;2.70;;
419;SDS011;42600;54.408;13.016;2022-08-25T11:27:07;7.57;;;2.80;;
419;SDS011;42600;54.408;13.016;2022-08-25T11:29:37;3.30;;;2.13;;
419;SDS011;42600;54.408;13.016;2022-08-25T11:32:07;8.60;;;3.00;;
419;SDS011;42600;54.408;13.016;2022-08-25T11:34:35;4.60;;;2.70;;
419;SDS011;42600;54.408;13.016;2022-08-25T11:37:04;3.93;;;2.23;;
419;SDS011;42600;54.408;13.016;2022-08-25T11:39:41;4.80;;;2.80;;
419;SDS011;42600;54.408;13.016;2022-08-25T11:42:27;4.53;;;2.20;;
419;SDS011;42600;54.408;13.016;2022-08-25T11:45:07;5.37;;;2.37;;
419;SDS011;42600;54.408;13.016;2022-08-25T11:47:50;5.33;;;2.47;;
419;SDS011;42600;54.408;13.016;2022-08-25T11:50:31;41.50;;;5.00;;
419;SDS011;42600;54.408;13.016;2022-08-25T11:53:01;5.53;;;2.40;;
419;SDS011;42600;54.408;13.016;2022-08-25T11:55:45;8.93;;;2.80;;
419;SDS011;42600;54.408;13.016;2022-08-25T11:58:19;6.67;;;3.03;;
419;SDS011;42600;54.408;13.016;2022-08-25T12:00:57;5.30;;;2.60;;
419;SDS011;42600;54.408;13.016;2022-08-25T12:06:37;7.57;;;2.80;;
419;SDS011;42600;54.408;13.016;2022-08-25T12:15:57;7.10;;;3.00;;
419;SDS011;42600;54.408;13.016;2022-08-25T12:18:37;8.70;;;3.00;;
419;SDS011;42600;54.408;13.016;2022-08-25T12:21:14;10.03;;;2.90;;
419;SDS011;42600;54.408;13.016;2022-08-25T12:24:09;7.17;;;3.00;;
419;SDS011;42600;54.408;13.016;2022-08-25T12:26:39;7.63;;;2.07;;
419;SDS011;42600;54.408;13.016;2022-08-25T12:29:10;8.50;;;2.43;;
419;SDS011;42600;54.408;13.016;2022-08-25T12:31:45;6.27;;;2.77;;
419;SDS011;42600;54.408;13.016;2022-08-25T12:34:26;5.63;;;2.50;;
419;SDS011;42600;54.408;13.016;2022-08-25T12:37:16;16.83;;;2.97;;
419;SDS011;42600;54.408;13.016;2022-08-25T12:39:51;6.90;;;2.57;;
419;SDS011;42600;54.408;13.016;2022-08-25T12:42:24;9.30;;;2.83;;
419;SDS011;42600;54.408;13.016;2022-08-25T12:47:52;6.40;;;2.23;;
419;SDS011;42600;54.408;13.016;2022-08-25T12:50:28;14.07;;;2.33;;
419;SDS011;42600;54.408;13.016;2022-08-25T12:53:11;4.13;;;2.33;;
419;SDS011;42600;54.408;13.016;2022-08-25T12:55:45;7.73;;;2.43;;
419;SDS011;42600;54.408;13.016;2022-08-25T12:58:14;10.00;;;2.37;;
419;SDS011;42600;54.408;13.016;2022-08-25T13:00:50;4.53;;;1.93;;
419;SDS011;42600;54.408;13.016;2022-08-25T13:03:36;5.33;;;2.60;;
419;SDS011;42600;54.408;13.016;2022-08-25T13:06:28;3.57;;;2.20;;
419;SDS011;42600;54.408;13.016;2022-08-25T13:12:14;11.40;;;3.03;;
419;SDS011;42600;54.408;13.016;2022-08-25T13:14:44;15.40;;;5.40;;
419;SDS011;42600;54.408;13.016;2022-08-25T13:19:49;6.77;;;2.33;;
419;SDS011;42600;54.408;13.016;2022-08-25T13:22:16;5.37;;;2.33;;
419;SDS011;42600;54.408;13.016;2022-08-25T13:24:45;3.73;;;2.73;;
419;SDS011;42600;54.408;13.016;2022-08-25T13:27:19;8.07;;;2.97;;
419;SDS011;42600;54.408;13.016;2022-08-25T13:29:49;6.70;;;2.70;;
419;SDS011;42600;54.408;13.016;2022-08-25T13:32:24;10.97;;;2.93;;
419;SDS011;42600;54.408;13.016;2022-08-25T13:34:51;9.70;;;2.90;;
419;SDS011;42600;54.408;13.016;2022-08-25T13:37:35;6.93;;;2.53;;
419;SDS011;42600;54.408;13.016;2022-08-25T13:40:08;3.10;;;1.77;;
419;SDS011;42600;54.408;13.016;2022-08-25T13:42:38;4.33;;;2.43;;
419;SDS011;42600;54.408;13.016;2022-08-25T13:45:07;7.00;;;3.13;;
419;SDS011;42600;54.408;13.016;2022-08-25T13:47:38;6.00;;;2.93;;
419;SDS011;42600;54.408;13.016;2022-08-25T13:50:20;6.67;;;3.57;;
419;SDS011;42600;54.408;13.016;2022-08-25T13:52:56;4.47;;;2.70;;
419;SDS011;42600;54.408;13.016;2022-08-25T13:55:25;15.00;;;3.37;;
419;SDS011;42600;54.408;13.016;2022-08-25T13:57:56;6.00;;;2.63;;
419;SDS011;42600;54.408;13.016;2022-08-25T14:00:25;8.27;;;2.40;;
419;SDS011;42600;54.408;13.016;2022-08-25T14:02:58;4.10;;;2.30;;
419;SDS011;42600;54.408;13.016;2022-08-25T14:05:29;6.90;;;2.90;;
419;SDS011;42600;54.408;13.016;2022-08-25T14:07:59;9.90;;;3.20;;
419;SDS011;42600;54.408;13.016;2022-08-25T14:10:31;14.37;;;3.50;;
419;SDS011;42600;54.408;13.016;2022-08-25T14:13:13;12.63;;;2.60;;
419;SDS011;42600;54.408;13.016;2022-08-25T14:15:42;6.30;;;2.73;;
419;SDS011;42600;54.408;13.016;2022-08-25T14:18:12;5.27;;;2.30;;
419;SDS011;42600;54.408;13.016;2022-08-25T14:20:43;9.20;;;2.80;;
419;SDS011;42600;54.408;13.016;2022-08-25T14:23:14;7.30;;;2.73;;
419;SDS011;42600;54.408;13.016;2022-08-25T14:25:42;14.07;;;2.40;;
419;SDS011;42600;54.408;13.016;2022-08-25T14:28:09;14.83;;;2.87;;
419;SDS011;42600;54.408;13.016;2022-08-25T14:30:41;4.23;;;2.87;;
419;SDS011;42600;54.408;13.016;2022-08-25T14:33:10;3.90;;;2.40;;
419;SDS011;42600;54.408;13.016;2022-08-25T14:35:45;4.40;;;2.67;;
419;SDS011;42600;54.408;13.016;2022-08-25T14:38:13;10.43;;;2.80;;
419;SDS011;42600;54.408;13.016;2022-08-25T14:40:41;6.90;;;2.70;;
419;SDS011;42600;54.408;13.016;2022-08-25T14:43:08;7.87;;;4.03;;
419;SDS011;42600;54.408;13.016;2022-08-25T14:45:36;6.70;;;2.57;;
419;SDS011;42600;54.408;13.016;2022-08-25T14:48:06;4.50;;;2.23;;
419;SDS011;42600;54.408;13.016;2022-08-25T14:50:34;8.43;;;2.73;;
419;SDS011;42600;54.408;13.016;2022-08-25T14:53:01;10.27;;;3.10;;
419;SDS011;42600;54.408;13.016;2022-08-25T14:55:28;8.60;;;2.47;;
419;SDS011;42600;54.408;13.016;2022-08-25T14:57:55;6.03;;;2.47;;
419;SDS011;42600;54.408;13.016;2022-08-25T15:00:22;6.33;;;2.80;;
419;SDS011;42600;54.408;13.016;2022-08-25T15:02:49;7.43;;;2.30;;
419;SDS011;42600;54.408;13.016;2022-08-25T15:05:20;7.90;;;2.60;;
419;SDS011;42600;54.408;13.016;2022-08-25T15:07:51;5.43;;;3.07;;
419;SDS011;42600;54.408;13.016;2022-08-25T15:10:35;13.00;;;2.77;;
419;SDS011;42600;54.408;13.016;2022-08-25T15:13:02;6.90;;;3.07;;
419;SDS011;42600;54.408;13.016;2022-08-25T15:15:29;8.40;;;2.60;;
419;SDS011;42600;54.408;13.016;2022-08-25T15:17:57;10.63;;;2.80;;
419;SDS011;42600;54.408;13.016;2022-08-25T15:20:25;8.67;;;3.37;;
419;SDS011;42600;54.408;13.016;2022-08-25T15:22:51;10.60;;;3.10;;
419;SDS011;42600;54.408;13.016;2022-08-25T15:25:18;7.37;;;2.80;;
419;SDS011;42600;54.408;13.016;2022-08-25T15:27:46;7.93;;;2.80;;
419;SDS011;42600;54.408;13.016;2022-08-25T15:30:13;4.90;;;3.50;;
419;SDS011;42600;54.408;13.016;2022-08-25T15:32:40;7.70;;;4.00;;